Time;durP1;ratioP1;P1;durP2;ratioP2;P2;SDS_P1;SDS_P2;PMS_P1;PMS_P2;Temp;Humidity;BMP_temperature;BMP_pressure;BME280_temperature;BME280_humidity;BME280_pressure;Samples;Min_cycle;Max_cycle;Signal;HPM_P1;HPM_P2
2021/07/19 00:01:32;;;;;;;8.05;2.40;;;20.90;99.90;;;;;;4133067;28;20030;-72
2021/07/19 00:03:32;;;;;;;2.97;1.88;;;20.90;99.90;;;;;;4145127;28;20103;-72
2021/07/19 00:05:33;;;;;;;3.28;1.73;;;20.90;99.90;;;;;;4148745;28;20183;-73
2021/07/19 00:07:33;;;;;;;3.75;1.95;;;20.80;99.90;;;;;;4148711;28;20091;-72
2021/07/19 00:09:35;;;;;;;4.43;2.35;;;20.90;99.90;;;;;;4128668;28;20113;-72
2021/07/19 00:11:37;;;;;;;3.95;2.22;;;20.80;99.90;;;;;;4152301;28;20164;-72
2021/07/19 00:13:38;;;;;;;2.53;2.03;;;20.80;99.90;;;;;;4148818;28;20428;-72
2021/07/19 00:15:38;;;;;;;4.05;2.10;;;20.90;99.90;;;;;;4125464;28;20069;-73
2021/07/19 00:17:41;;;;;;;3.83;2.35;;;20.90;99.90;;;;;;4145205;28;20040;-72
2021/07/19 00:19:42;;;;;;;5.78;2.30;;;20.90;99.90;;;;;;4148115;28;20133;-72
2021/07/19 00:21:43;;;;;;;2.40;1.88;;;20.80;99.90;;;;;;4145835;28;20655;-72
2021/07/19 00:23:43;;;;;;;3.03;1.85;;;20.80;99.90;;;;;;4147099;28;20068;-72
2021/07/19 00:25:44;;;;;;;8.07;2.88;;;20.90;99.90;;;;;;4109148;28;20094;-72
2021/07/19 00:27:46;;;;;;;2.92;2.03;;;20.90;99.90;;;;;;4141817;28;20065;-73
2021/07/19 00:29:47;;;;;;;3.72;2.00;;;20.90;99.90;;;;;;4149379;28;20041;-72
2021/07/19 00:31:47;;;;;;;4.43;2.13;;;20.90;99.90;;;;;;4130299;28;20048;-72
2021/07/19 00:33:48;;;;;;;3.00;2.25;;;20.90;99.90;;;;;;4144097;28;20924;-72
2021/07/19 00:35:49;;;;;;;2.88;1.73;;;20.90;99.90;;;;;;4141432;28;20037;-73
2021/07/19 00:37:49;;;;;;;6.18;2.17;;;20.90;99.90;;;;;;4145101;28;20061;-72
2021/07/19 00:39:50;;;;;;;2.70;2.30;;;20.90;99.90;;;;;;4145068;28;20049;-72
2021/07/19 00:41:51;;;;;;;3.05;1.88;;;20.90;99.90;;;;;;4148157;28;20052;-72
2021/07/19 00:43:52;;;;;;;3.35;1.73;;;20.90;99.90;;;;;;4127206;28;20086;-73
2021/07/19 00:45:53;;;;;;;2.38;1.90;;;20.80;99.90;;;;;;4127247;28;20636;-72
2021/07/19 00:47:56;;;;;;;2.58;1.90;;;20.80;99.90;;;;;;4146935;28;20038;-72
2021/07/19 00:49:57;;;;;;;2.28;2.08;;;20.80;99.90;;;;;;4142754;28;20096;-72
2021/07/19 00:51:57;;;;;;;4.20;2.05;;;20.80;99.90;;;;;;4145376;28;20474;-72
2021/07/19 00:53:58;;;;;;;2.20;1.92;;;20.80;99.90;;;;;;4147651;28;20038;-72
2021/07/19 00:55:59;;;;;;;6.07;2.65;;;20.80;99.90;;;;;;4147114;28;20056;-73
2021/07/19 00:58:02;;;;;;;3.55;2.17;;;20.80;99.90;;;;;;4133391;28;20156;-73
2021/07/19 01:00:07;;;;;;;2.70;1.95;;;20.80;99.90;;;;;;4150839;28;20102;-72
2021/07/19 01:02:08;;;;;;;5.80;2.88;;;20.70;99.90;;;;;;4143569;28;20046;-72
2021/07/19 01:04:10;;;;;;;5.63;2.30;;;20.70;99.90;;;;;;4145156;28;20050;-72
2021/07/19 01:06:11;;;;;;;3.50;2.05;;;20.60;99.90;;;;;;4143399;28;20034;-72
2021/07/19 01:08:12;;;;;;;5.35;2.60;;;20.60;99.90;;;;;;4144461;28;20343;-72
2021/07/19 01:10:17;;;;;;;4.45;2.28;;;20.60;99.90;;;;;;4146880;28;20041;-72
2021/07/19 01:12:18;;;;;;;5.30;2.45;;;20.60;99.90;;;;;;4128891;28;20819;-72
2021/07/19 01:14:19;;;;;;;3.42;2.28;;;20.50;99.90;;;;;;4142627;28;20394;-72
2021/07/19 01:16:19;;;;;;;3.33;2.03;;;20.50;99.90;;;;;;4134393;28;20116;-72
2021/07/19 01:18:20;;;;;;;2.95;1.88;;;20.50;99.90;;;;;;4140754;28;20038;-72
2021/07/19 01:20:32;;;;;;;3.60;2.10;;;20.40;99.90;;;;;;4145732;28;20394;-72
2021/07/19 01:22:58;;;;;;;3.45;2.60;;;20.40;99.90;;;;;;4142840;28;20037;-72
2021/07/19 01:25:50;;;;;;;4.85;2.47;;;20.40;99.90;;;;;;4124745;28;20050;-72
2021/07/19 01:27:57;;;;;;;3.63;2.30;;;20.40;99.90;;;;;;4106050;28;20041;-72
2021/07/19 01:29:58;;;;;;;4.95;2.70;;;20.40;99.90;;;;;;4138769;28;20045;-72
2021/07/19 01:32:00;;;;;;;2.90;2.33;;;20.40;99.90;;;;;;4146415;28;20748;-72
2021/07/19 01:34:09;;;;;;;6.40;2.35;;;20.40;99.90;;;;;;4147880;28;20646;-72
2021/07/19 01:36:13;;;;;;;4.90;2.20;;;20.40;99.90;;;;;;4145717;28;20103;-72
2021/07/19 01:38:15;;;;;;;5.43;2.35;;;20.40;99.90;;;;;;4141676;28;20680;-72
2021/07/19 01:40:17;;;;;;;3.40;2.22;;;20.40;99.90;;;;;;4124510;28;20047;-72
2021/07/19 01:42:18;;;;;;;3.28;2.40;;;20.30;99.90;;;;;;4148680;28;20145;-72
2021/07/19 01:44:19;;;;;;;4.25;2.30;;;20.40;99.90;;;;;;4123788;28;20502;-72
2021/07/19 01:46:20;;;;;;;3.78;2.38;;;20.30;99.90;;;;;;4150540;28;20045;-72
2021/07/19 01:48:22;;;;;;;3.65;2.72;;;20.30;99.90;;;;;;4148613;28;20072;-72
2021/07/19 01:50:25;;;;;;;4.73;2.43;;;20.20;99.90;;;;;;4128237;28;20065;-73
2021/07/19 01:52:26;;;;;;;3.95;2.63;;;20.20;99.90;;;;;;4144400;28;20140;-72
2021/07/19 01:54:27;;;;;;;4.55;2.60;;;20.10;99.90;;;;;;4142884;28;20510;-72
2021/07/19 01:56:29;;;;;;;4.38;2.35;;;20.00;99.90;;;;;;4141891;28;20041;-72
2021/07/19 01:58:30;;;;;;;6.23;2.83;;;19.90;99.90;;;;;;4150165;28;20857;-72
2021/07/19 02:00:31;;;;;;;5.65;2.80;;;19.80;99.90;;;;;;4148113;28;20288;-72
2021/07/19 02:02:35;;;;;;;4.43;2.50;;;19.80;99.90;;;;;;4142407;28;20406;-72
2021/07/19 02:04:36;;;;;;;6.88;3.03;;;19.80;99.90;;;;;;4132612;28;20049;-72
2021/07/19 02:06:40;;;;;;;4.75;2.70;;;19.70;99.90;;;;;;4147225;28;20494;-72
2021/07/19 02:08:42;;;;;;;5.03;3.08;;;19.70;99.90;;;;;;4148708;28;20041;-72
2021/07/19 02:10:48;;;;;;;5.40;2.92;;;19.60;99.90;;;;;;4149140;28;20046;-72
2021/07/19 02:12:50;;;;;;;4.25;2.50;;;19.60;99.90;;;;;;4148431;28;20145;-72
2021/07/19 02:14:51;;;;;;;6.97;2.83;;;19.60;99.90;;;;;;4153279;28;20480;-72
2021/07/19 02:16:54;;;;;;;4.20;3.17;;;19.50;99.90;;;;;;4143335;28;20425;-73
2021/07/19 02:18:56;;;;;;;4.65;2.75;;;19.50;99.90;;;;;;4146923;28;20414;-72
2021/07/19 02:21:04;;;;;;;5.22;3.00;;;19.40;99.90;;;;;;4145865;28;20115;-72
2021/07/19 02:23:06;;;;;;;7.40;2.95;;;19.40;99.90;;;;;;4131429;28;20750;-72
2021/07/19 02:25:10;;;;;;;3.83;2.80;;;19.30;99.90;;;;;;4146830;28;20058;-72
2021/07/19 02:27:11;;;;;;;4.43;2.63;;;19.30;99.90;;;;;;4130883;28;20065;-73
2021/07/19 02:29:13;;;;;;;4.55;2.90;;;19.30;99.90;;;;;;4131900;28;20043;-72
2021/07/19 02:31:15;;;;;;;4.43;3.20;;;19.30;99.90;;;;;;4147352;28;20033;-72
2021/07/19 02:33:20;;;;;;;4.53;3.63;;;19.30;99.90;;;;;;4147799;28;20044;-73
2021/07/19 02:35:22;;;;;;;5.18;3.00;;;19.30;99.90;;;;;;4144977;28;20030;-72
2021/07/19 02:37:24;;;;;;;5.43;3.67;;;19.20;99.90;;;;;;4146355;28;20054;-72
2021/07/19 02:39:26;;;;;;;4.85;3.20;;;19.20;99.90;;;;;;4149784;28;20382;-72
2021/07/19 02:41:28;;;;;;;5.45;3.30;;;19.20;99.90;;;;;;4149305;28;20046;-72
2021/07/19 02:43:29;;;;;;;4.65;3.38;;;19.10;99.90;;;;;;4148011;28;20054;-72
2021/07/19 02:45:35;;;;;;;7.30;3.35;;;19.10;99.90;;;;;;4151622;28;20037;-72
2021/07/19 02:47:36;;;;;;;9.88;3.40;;;19.10;99.90;;;;;;4143188;28;20050;-72
2021/07/19 02:49:38;;;;;;;6.00;3.28;;;19.10;99.90;;;;;;4144669;28;20045;-72
2021/07/19 02:51:39;;;;;;;6.97;3.22;;;19.10;99.90;;;;;;4133556;28;20579;-72
2021/07/19 02:53:41;;;;;;;4.18;3.28;;;19.20;99.90;;;;;;4147664;28;20030;-72
2021/07/19 02:55:43;;;;;;;5.22;3.30;;;19.20;99.90;;;;;;4147531;28;20096;-72
2021/07/19 02:57:44;;;;;;;3.55;2.85;;;19.20;99.90;;;;;;4142495;28;20045;-72
2021/07/19 02:59:45;;;;;;;4.18;2.90;;;19.20;99.90;;;;;;4149874;28;20038;-72
2021/07/19 03:01:50;;;;;;;5.45;3.15;;;19.20;99.90;;;;;;4145235;28;20413;-72
2021/07/19 03:03:56;;;;;;;6.60;3.00;;;19.20;99.90;;;;;;4146285;28;20124;-72
2021/07/19 03:06:01;;;;;;;4.30;3.28;;;19.20;99.90;;;;;;4152736;28;20045;-72
2021/07/19 03:08:05;;;;;;;5.85;2.97;;;19.20;99.90;;;;;;4118766;28;20093;-72
2021/07/19 03:10:09;;;;;;;5.78;3.10;;;19.20;99.90;;;;;;4122629;28;21147;-72
2021/07/19 03:12:11;;;;;;;5.88;3.40;;;19.10;99.90;;;;;;4117150;28;20802;-72
2021/07/19 03:14:23;;;;;;;5.40;3.58;;;19.10;99.90;;;;;;4124354;28;20034;-72
2021/07/19 03:16:26;;;;;;;6.88;3.95;;;19.10;99.90;;;;;;4143845;28;20042;-72
2021/07/19 03:18:27;;;;;;;4.88;3.40;;;19.10;99.90;;;;;;4118131;28;20034;-72
2021/07/19 03:20:30;;;;;;;5.63;3.40;;;19.00;99.90;;;;;;4137878;28;20080;-72
2021/07/19 03:22:31;;;;;;;6.05;3.25;;;19.00;99.90;;;;;;4138561;28;20034;-72
2021/07/19 03:24:32;;;;;;;4.97;3.50;;;19.00;99.90;;;;;;4126560;28;20744;-72
2021/07/19 03:26:36;;;;;;;6.03;3.53;;;19.00;99.90;;;;;;4145672;28;20041;-72
2021/07/19 03:28:38;;;;;;;5.45;3.47;;;19.00;99.90;;;;;;4137243;28;20038;-72
2021/07/19 03:30:40;;;;;;;3.83;2.97;;;19.00;99.90;;;;;;4149674;28;20092;-72
2021/07/19 03:32:42;;;;;;;4.70;3.47;;;19.00;99.90;;;;;;4143959;28;20848;-72
2021/07/19 03:34:43;;;;;;;4.88;3.55;;;19.00;99.90;;;;;;4131603;28;20053;-72
2021/07/19 03:36:45;;;;;;;5.93;3.85;;;19.10;99.90;;;;;;4131660;28;20041;-72
2021/07/19 03:38:47;;;;;;;5.75;3.42;;;19.10;99.90;;;;;;4142926;28;20062;-72
2021/07/19 03:40:48;;;;;;;5.78;3.63;;;19.10;99.90;;;;;;4144692;28;20433;-72
2021/07/19 03:42:50;;;;;;;5.40;3.33;;;19.10;99.90;;;;;;4147057;28;20044;-72
2021/07/19 03:44:52;;;;;;;4.13;2.95;;;19.10;99.90;;;;;;4141920;28;20038;-72
2021/07/19 03:46:52;;;;;;;5.43;3.23;;;19.10;99.90;;;;;;4152414;28;20045;-72
2021/07/19 03:48:54;;;;;;;7.10;3.50;;;19.10;99.90;;;;;;4146864;28;20038;-73
2021/07/19 03:50:55;;;;;;;5.38;3.90;;;19.00;99.90;;;;;;4148313;28;20041;-73
2021/07/19 03:52:56;;;;;;;4.88;3.72;;;19.00;99.90;;;;;;4125807;28;20069;-72
2021/07/19 03:54:58;;;;;;;6.45;3.70;;;19.00;99.90;;;;;;4147034;28;20524;-72
2021/07/19 03:57:03;;;;;;;5.72;3.47;;;18.90;99.90;;;;;;4147859;28;20045;-72
2021/07/19 03:59:04;;;;;;;4.90;3.85;;;18.90;99.90;;;;;;4146527;28;20113;-72
2021/07/19 04:01:05;;;;;;;5.57;3.67;;;18.90;99.90;;;;;;4141231;28;20141;-72
2021/07/19 04:03:18;;;;;;;6.80;3.92;;;18.90;99.90;;;;;;4150091;28;20187;-72
2021/07/19 04:05:21;;;;;;;5.40;3.65;;;18.90;99.90;;;;;;4150569;28;20112;-72
2021/07/19 04:07:22;;;;;;;5.80;3.80;;;18.90;99.90;;;;;;4146872;28;20034;-72
2021/07/19 04:09:23;;;;;;;6.68;4.10;;;18.90;99.90;;;;;;4148441;28;20030;-72
2021/07/19 04:11:25;;;;;;;6.85;4.22;;;18.90;99.90;;;;;;4129813;28;20077;-72
2021/07/19 04:13:26;;;;;;;7.13;4.50;;;18.90;99.90;;;;;;4143297;28;20034;-72
2021/07/19 04:15:29;;;;;;;5.82;4.13;;;18.90;99.90;;;;;;4150321;28;20087;-72
2021/07/19 04:17:30;;;;;;;5.93;4.18;;;18.90;99.90;;;;;;4142808;28;20649;-72
2021/07/19 04:19:32;;;;;;;6.72;4.20;;;18.90;99.90;;;;;;4145724;28;20044;-72
2021/07/19 04:21:33;;;;;;;5.95;4.32;;;18.90;99.90;;;;;;4141040;28;20030;-72
2021/07/19 04:23:35;;;;;;;7.35;4.35;;;18.90;99.90;;;;;;4142774;28;20042;-72
2021/07/19 04:25:37;;;;;;;8.30;4.50;;;19.00;99.90;;;;;;4145350;28;20112;-72
2021/07/19 04:27:39;;;;;;;7.47;4.78;;;19.00;99.90;;;;;;4154563;28;20033;-72
2021/07/19 04:29:40;;;;;;;8.25;4.63;;;19.00;99.90;;;;;;4142863;28;20061;-72
2021/07/19 04:31:42;;;;;;;7.00;4.75;;;19.00;99.90;;;;;;4129276;28;20125;-72
2021/07/19 04:33:46;;;;;;;6.85;4.68;;;18.90;99.90;;;;;;4145316;28;20077;-72
2021/07/19 04:35:47;;;;;;;7.15;4.60;;;18.90;99.90;;;;;;4126193;28;20046;-72
2021/07/19 04:37:50;;;;;;;7.63;5.05;;;18.90;99.90;;;;;;4146803;28;20678;-72
2021/07/19 04:39:52;;;;;;;5.30;4.05;;;18.90;99.90;;;;;;4126778;28;20078;-72
2021/07/19 04:41:53;;;;;;;6.80;4.47;;;18.90;99.90;;;;;;4126557;28;20048;-72
2021/07/19 04:43:53;;;;;;;8.02;4.68;;;18.90;99.90;;;;;;4147438;28;20284;-72
2021/07/19 04:45:54;;;;;;;7.78;4.93;;;18.90;99.90;;;;;;4129761;28;20070;-72
2021/07/19 04:47:55;;;;;;;7.88;5.13;;;18.90;99.90;;;;;;4144925;28;20540;-72
2021/07/19 04:49:55;;;;;;;8.52;5.65;;;18.90;99.90;;;;;;4124911;28;20030;-72
2021/07/19 04:51:56;;;;;;;7.30;4.70;;;18.90;99.90;;;;;;4120344;28;20623;-72
2021/07/19 04:53:57;;;;;;;8.32;5.30;;;19.00;99.90;;;;;;4129714;28;20498;-72
2021/07/19 04:56:00;;;;;;;10.02;5.53;;;18.90;99.90;;;;;;4151144;28;20381;-72
2021/07/19 04:58:01;;;;;;;7.43;4.78;;;19.00;99.90;;;;;;4148695;28;20121;-72
2021/07/19 05:00:05;;;;;;;8.60;5.40;;;19.00;99.90;;;;;;4126848;28;20042;-72
2021/07/19 05:02:10;;;;;;;7.78;5.43;;;19.00;99.90;;;;;;4129114;28;20691;-72
2021/07/19 05:04:13;;;;;;;6.68;4.78;;;19.00;99.90;;;;;;4152165;28;20041;-72
2021/07/19 05:06:15;;;;;;;9.27;5.57;;;19.10;99.90;;;;;;4151769;28;20064;-72
2021/07/19 05:08:20;;;;;;;7.90;5.70;;;19.10;99.90;;;;;;4155857;28;20099;-72
2021/07/19 05:10:23;;;;;;;8.95;4.90;;;19.10;99.90;;;;;;4128458;28;20849;-72
2021/07/19 05:12:25;;;;;;;8.93;5.43;;;19.10;99.90;;;;;;4152142;28;20467;-72
2021/07/19 05:14:26;;;;;;;9.63;6.07;;;19.10;99.90;;;;;;4143167;28;20036;-72
2021/07/19 05:16:29;;;;;;;11.15;6.13;;;19.10;99.90;;;;;;4147244;28;20038;-72
2021/07/19 05:18:30;;;;;;;9.02;6.38;;;19.10;99.90;;;;;;4144849;28;20026;-72
2021/07/19 05:20:31;;;;;;;9.57;6.38;;;19.10;99.90;;;;;;4151087;28;20036;-72
2021/07/19 05:22:32;;;;;;;9.07;6.75;;;19.10;99.90;;;;;;4118215;28;20546;-72
2021/07/19 05:24:32;;;;;;;9.15;6.53;;;19.10;99.90;;;;;;4136705;28;20065;-72
2021/07/19 05:26:35;;;;;;;9.98;6.47;;;19.10;99.90;;;;;;4119415;28;20410;-72
2021/07/19 05:28:36;;;;;;;10.02;6.13;;;19.10;99.90;;;;;;4141015;28;20130;-72
2021/07/19 05:30:40;;;;;;;10.02;6.10;;;19.10;99.90;;;;;;4146220;28;20477;-72
2021/07/19 05:32:40;;;;;;;10.18;6.45;;;19.10;99.90;;;;;;4133608;28;20045;-72
2021/07/19 05:34:41;;;;;;;8.90;6.10;;;19.10;99.90;;;;;;4133021;28;20037;-72
2021/07/19 05:36:42;;;;;;;10.43;6.72;;;19.20;99.90;;;;;;4110716;28;20052;-72
2021/07/19 05:38:43;;;;;;;9.75;7.18;;;19.20;99.90;;;;;;4136483;28;20056;-72
2021/07/19 05:40:44;;;;;;;13.10;7.70;;;19.20;99.90;;;;;;4099312;28;20606;-73
2021/07/19 05:42:45;;;;;;;12.57;7.85;;;19.20;99.90;;;;;;4138045;28;20042;-72
2021/07/19 05:44:45;;;;;;;10.48;7.57;;;19.20;99.90;;;;;;4119634;28;20047;-72
2021/07/19 05:46:46;;;;;;;11.73;7.18;;;19.30;99.90;;;;;;4138398;28;20041;-72
2021/07/19 05:48:47;;;;;;;9.25;6.80;;;19.20;99.90;;;;;;4120749;28;20096;-72
2021/07/19 05:50:47;;;;;;;11.75;7.43;;;19.30;99.90;;;;;;4125880;28;20050;-73
2021/07/19 05:52:48;;;;;;;11.07;6.97;;;19.30;99.90;;;;;;4134412;28;20042;-72
2021/07/19 05:54:49;;;;;;;11.18;7.22;;;19.30;99.90;;;;;;4133885;28;20041;-72
2021/07/19 05:56:49;;;;;;;9.50;6.38;;;19.30;99.90;;;;;;4135740;28;20358;-73
2021/07/19 05:58:50;;;;;;;12.63;6.70;;;19.40;99.90;;;;;;4138379;28;20038;-73
2021/07/19 06:00:50;;;;;;;13.43;8.38;;;19.40;99.90;;;;;;4139160;28;20129;-72
2021/07/19 06:02:51;;;;;;;11.43;7.70;;;19.50;99.90;;;;;;4117121;28;20042;-72
2021/07/19 06:04:52;;;;;;;10.90;6.72;;;19.40;99.90;;;;;;4136742;28;20038;-73
2021/07/19 06:06:53;;;;;;;11.25;7.28;;;19.50;99.90;;;;;;4131855;28;20031;-72
2021/07/19 06:08:54;;;;;;;9.38;6.68;;;19.60;99.90;;;;;;4136750;28;20034;-73
2021/07/19 06:10:54;;;;;;;10.98;7.50;;;19.80;99.90;;;;;;4134287;28;20172;-72
2021/07/19 06:12:55;;;;;;;11.60;7.22;;;20.00;99.90;;;;;;4136093;28;20158;-73
2021/07/19 06:14:56;;;;;;;9.75;6.00;;;20.10;99.90;;;;;;4132386;28;20173;-72
2021/07/19 06:16:56;;;;;;;10.30;6.80;;;20.30;99.90;;;;;;4135072;28;20133;-73
2021/07/19 06:18:57;;;;;;;10.43;6.22;;;20.40;99.90;;;;;;4131916;28;20042;-72
2021/07/19 06:20:57;;;;;;;10.48;6.20;;;20.40;99.90;;;;;;4134710;28;20050;-72
2021/07/19 06:23:01;;;;;;;11.48;6.75;;;20.40;99.90;;;;;;4132636;28;20038;-72
2021/07/19 06:25:03;;;;;;;9.25;6.20;;;20.40;99.90;;;;;;4132251;28;20057;-73
2021/07/19 06:27:05;;;;;;;9.63;6.82;;;20.40;99.90;;;;;;4134790;28;20479;-72
2021/07/19 06:29:05;;;;;;;12.50;7.03;;;20.40;99.90;;;;;;4119500;28;20031;-72
2021/07/19 06:31:06;;;;;;;10.95;6.65;;;20.40;99.90;;;;;;4129834;28;20275;-72
2021/07/19 06:33:07;;;;;;;11.98;6.38;;;20.40;99.90;;;;;;4131934;28;20040;-72
2021/07/19 06:35:08;;;;;;;13.38;6.75;;;20.40;99.90;;;;;;4132485;28;20046;-72
2021/07/19 06:37:09;;;;;;;9.68;6.03;;;20.40;99.90;;;;;;4134526;28;20042;-71
2021/07/19 06:39:09;;;;;;;9.38;6.05;;;20.30;99.90;;;;;;4130634;28;20552;-71
2021/07/19 06:41:12;;;;;;;10.38;6.15;;;20.30;99.90;;;;;;4130483;28;20068;-71
2021/07/19 06:43:12;;;;;;;;;;;20.20;99.90;;;;;;4135398;28;20390;-72
2021/07/19 06:45:14;;;;;;;11.38;5.90;;;20.20;99.90;;;;;;4132213;28;19921;-71
2021/07/19 06:47:15;;;;;;;7.25;5.22;;;20.20;99.90;;;;;;4135158;28;20485;-71
2021/07/19 06:49:16;;;;;;;9.43;5.90;;;20.20;99.90;;;;;;4114306;28;20045;-71
2021/07/19 06:51:16;;;;;;;10.57;5.88;;;20.20;99.90;;;;;;4130987;28;20104;-72
2021/07/19 06:53:17;;;;;;;9.38;5.40;;;20.20;99.90;;;;;;4134288;28;20157;-71
2021/07/19 06:55:18;;;;;;;9.18;5.30;;;20.30;99.90;;;;;;4131563;28;20131;-71
2021/07/19 06:57:19;;;;;;;9.52;5.90;;;20.30;99.90;;;;;;4131367;28;20064;-71
2021/07/19 06:59:20;;;;;;;7.38;5.25;;;20.30;99.90;;;;;;4131631;28;20141;-71
2021/07/19 07:01:21;;;;;;;8.57;5.30;;;20.30;99.90;;;;;;4132398;28;20088;-71
2021/07/19 07:03:21;;;;;;;9.68;5.85;;;20.30;99.90;;;;;;4132923;28;20401;-71
2021/07/19 07:05:22;;;;;;;11.90;6.22;;;20.30;99.90;;;;;;4119517;28;20034;-71
2021/07/19 07:07:22;;;;;;;9.38;5.28;;;20.40;99.90;;;;;;4134923;28;20518;-72
2021/07/19 07:09:23;;;;;;;8.20;5.57;;;20.40;99.90;;;;;;4133665;28;20080;-72
2021/07/19 07:11:23;;;;;;;8.50;5.30;;;20.40;99.90;;;;;;4133198;28;20054;-72
2021/07/19 07:13:24;;;;;;;8.85;5.18;;;20.40;99.90;;;;;;4130569;28;20088;-72
2021/07/19 07:15:25;;;;;;;10.05;5.38;;;20.40;99.90;;;;;;4129388;28;20034;-72
2021/07/19 07:17:26;;;;;;;10.10;5.88;;;20.40;99.90;;;;;;4133061;28;20046;-72
2021/07/19 07:19:26;;;;;;;8.52;5.53;;;20.40;99.90;;;;;;4137058;28;20184;-72
2021/07/19 07:21:29;;;;;;;7.88;5.13;;;20.40;99.90;;;;;;4130814;28;20038;-72
2021/07/19 07:23:30;;;;;;;12.63;6.18;;;20.50;99.90;;;;;;4130480;28;20443;-72
2021/07/19 07:25:32;;;;;;;10.18;5.90;;;20.50;99.90;;;;;;4117056;28;20045;-72
2021/07/19 07:27:34;;;;;;;9.15;5.60;;;20.50;99.90;;;;;;4133790;28;20041;-72
2021/07/19 07:29:35;;;;;;;10.00;5.20;;;20.60;99.90;;;;;;4133024;28;20050;-72
2021/07/19 07:31:35;;;;;;;7.95;4.90;;;20.60;99.90;;;;;;4118572;28;20483;-71
2021/07/19 07:33:36;;;;;;;9.13;5.75;;;20.60;99.90;;;;;;4115559;28;20054;-72
2021/07/19 07:35:40;;;;;;;9.45;5.80;;;20.70;99.90;;;;;;4130712;28;20035;-72
2021/07/19 07:37:41;;;;;;;9.68;5.70;;;20.70;99.90;;;;;;4130886;28;20656;-72
2021/07/19 07:39:42;;;;;;;9.45;5.32;;;20.70;99.90;;;;;;4131105;28;20045;-72
2021/07/19 07:41:43;;;;;;;10.55;5.70;;;20.70;99.90;;;;;;4131095;28;20363;-72
2021/07/19 07:43:44;;;;;;;8.57;5.82;;;20.70;99.90;;;;;;4132492;28;20133;-72
2021/07/19 07:45:44;;;;;;;9.85;5.20;;;20.70;99.90;;;;;;4130848;28;20097;-72
2021/07/19 07:47:45;;;;;;;8.75;5.55;;;20.70;99.90;;;;;;4134408;28;20380;-73
2021/07/19 07:49:47;;;;;;;10.95;5.53;;;20.80;99.90;;;;;;4134606;28;20041;-72
2021/07/19 07:51:48;;;;;;;9.82;5.53;;;20.80;99.90;;;;;;4117257;28;20046;-72
2021/07/19 07:53:49;;;;;;;10.05;5.82;;;20.80;99.90;;;;;;4133972;28;20046;-72
2021/07/19 07:55:50;;;;;;;9.77;5.25;;;20.80;99.90;;;;;;4117991;28;20042;-72
2021/07/19 07:57:50;;;;;;;12.57;6.45;;;20.80;99.90;;;;;;4132382;28;20132;-72
2021/07/19 07:59:51;;;;;;;10.32;5.40;;;20.80;99.90;;;;;;4135227;28;20030;-74
2021/07/19 08:01:51;;;;;;;9.70;5.80;;;20.90;99.90;;;;;;4133171;28;20048;-74
2021/07/19 08:03:52;;;;;;;8.82;6.30;;;20.90;99.90;;;;;;4134860;28;20141;-75
2021/07/19 08:05:52;;;;;;;10.98;5.88;;;20.90;99.90;;;;;;4134972;28;20089;-75
2021/07/19 08:07:53;;;;;;;12.88;6.80;;;20.90;99.90;;;;;;4114555;28;20125;-76
2021/07/19 08:09:53;;;;;;;11.82;7.07;;;20.80;99.90;;;;;;4137563;28;20033;-75
2021/07/19 08:11:55;;;;;;;10.90;6.47;;;20.80;99.90;;;;;;4113986;28;20022;-76
2021/07/19 08:13:55;;;;;;;10.07;6.35;;;20.90;99.90;;;;;;4113618;28;20051;-75
2021/07/19 08:15:56;;;;;;;10.40;6.15;;;20.80;99.90;;;;;;4132709;28;20359;-76
2021/07/19 08:17:57;;;;;;;11.20;6.55;;;20.90;99.90;;;;;;4117676;28;20129;-76
2021/07/19 08:19:58;;;;;;;9.48;5.95;;;20.90;99.90;;;;;;4137248;28;20551;-76
2021/07/19 08:21:59;;;;;;;13.48;7.03;;;21.00;99.90;;;;;;4131461;28;20100;-76
2021/07/19 08:24:00;;;;;;;11.27;6.43;;;20.90;99.90;;;;;;4132983;28;20490;-75
2021/07/19 08:26:01;;;;;;;9.00;6.32;;;20.90;99.90;;;;;;4134873;28;20042;-75
2021/07/19 08:28:01;;;;;;;10.85;5.95;;;20.90;99.90;;;;;;4135037;28;20065;-76
2021/07/19 08:30:04;;;;;;;10.95;6.95;;;21.00;99.90;;;;;;4135477;28;20187;-76
2021/07/19 08:32:05;;;;;;;9.45;6.53;;;21.00;99.90;;;;;;4116467;28;20856;-73
2021/07/19 08:34:06;;;;;;;11.02;6.80;;;21.00;99.90;;;;;;4127327;28;21730;-75
2021/07/19 08:36:07;;;;;;;12.73;6.35;;;21.10;99.90;;;;;;4095824;28;20045;-75
2021/07/19 08:38:07;;;;;;;8.45;5.82;;;21.10;99.90;;;;;;4131740;28;22318;-75
2021/07/19 08:40:10;;;;;;;9.52;5.90;;;21.10;99.90;;;;;;4129542;28;20033;-74
2021/07/19 08:42:12;;;;;;;;;;;21.10;99.90;;;;;;4130833;28;20042;-74
2021/07/19 08:44:14;;;;;;;9.98;6.05;;;21.10;99.90;;;;;;4131457;28;19922;-75
2021/07/19 08:46:15;;;;;;;10.60;6.45;;;21.10;99.90;;;;;;4135244;28;20046;-73
2021/07/19 08:48:15;;;;;;;9.10;6.00;;;21.10;99.90;;;;;;4129359;28;20510;-73
2021/07/19 08:50:18;;;;;;;11.55;6.28;;;21.10;99.90;;;;;;4129146;28;20096;-73
2021/07/19 08:52:21;;;;;;;10.30;6.32;;;21.10;99.90;;;;;;4130992;28;20493;-72
2021/07/19 08:54:22;;;;;;;11.35;7.10;;;21.10;99.90;;;;;;4129615;28;20553;-72
2021/07/19 08:56:23;;;;;;;8.90;5.95;;;21.00;99.90;;;;;;4116196;28;20072;-72
2021/07/19 08:58:25;;;;;;;9.88;6.80;;;21.10;99.90;;;;;;4129895;28;20043;-72
2021/07/19 09:00:26;;;;;;;8.73;5.97;;;21.10;99.90;;;;;;4114706;28;20121;-74
2021/07/19 09:02:30;;;;;;;12.00;7.45;;;21.10;99.90;;;;;;4134473;28;20064;-74
2021/07/19 09:04:31;;;;;;;10.15;7.00;;;21.10;99.90;;;;;;4120929;28;20050;-74
2021/07/19 09:06:32;;;;;;;10.32;6.95;;;21.10;99.90;;;;;;4130983;28;20452;-75
2021/07/19 09:08:32;;;;;;;10.00;6.80;;;21.10;99.90;;;;;;4115027;28;20508;-74
2021/07/19 09:10:34;;;;;;;9.85;7.05;;;21.10;99.90;;;;;;4133848;28;20353;-75
2021/07/19 09:12:37;;;;;;;9.57;6.45;;;21.10;99.90;;;;;;4134735;28;20541;-74
2021/07/19 09:14:46;;;;;;;10.55;6.50;;;21.10;99.90;;;;;;4133180;28;20054;-75
2021/07/19 09:16:48;;;;;;;8.98;5.82;;;21.00;99.90;;;;;;4112960;28;20034;-74
2021/07/19 09:19:10;;;;;;;10.15;6.45;;;21.10;99.90;;;;;;4114689;28;20038;-74
2021/07/19 09:21:32;;;;;;;10.02;6.60;;;21.10;99.90;;;;;;4135333;28;20042;-74
2021/07/19 09:23:32;;;;;;;10.02;6.60;;;21.10;99.90;;;;;;4131168;28;20072;-74
2021/07/19 09:25:33;;;;;;;11.32;6.68;;;21.10;99.90;;;;;;4119608;28;20050;-74
2021/07/19 09:27:34;;;;;;;9.35;6.63;;;21.10;99.90;;;;;;4133730;28;20073;-74
2021/07/19 09:29:38;;;;;;;10.75;7.53;;;21.20;99.90;;;;;;4134313;28;20570;-74
2021/07/19 09:31:41;;;;;;;12.32;7.43;;;21.20;99.90;;;;;;4115927;28;20114;-74
2021/07/19 09:33:42;;;;;;;10.90;7.15;;;21.20;99.90;;;;;;4115824;28;20161;-74
2021/07/19 09:35:47;;;;;;;10.40;7.20;;;21.20;99.90;;;;;;4115319;28;20042;-74
2021/07/19 09:37:49;;;;;;;11.55;7.47;;;21.20;99.90;;;;;;4134514;28;20380;-74
2021/07/19 09:39:53;;;;;;;10.68;7.60;;;21.20;99.90;;;;;;4115913;28;20023;-74
2021/07/19 09:42:04;;;;;;;11.25;6.80;;;21.20;99.90;;;;;;4136636;28;20100;-74
2021/07/19 09:44:08;;;;;;;11.68;7.45;;;21.20;99.90;;;;;;4134917;28;20045;-74
2021/07/19 09:46:09;;;;;;;10.35;6.78;;;21.20;99.90;;;;;;4115195;28;20054;-74
2021/07/19 09:48:10;;;;;;;11.55;7.30;;;21.20;99.90;;;;;;4101800;28;20098;-74
2021/07/19 09:50:19;;;;;;;9.65;7.10;;;21.20;99.90;;;;;;4138442;28;20045;-74
2021/07/19 09:52:20;;;;;;;9.65;6.63;;;21.30;99.90;;;;;;4117911;28;20048;-74
2021/07/19 09:54:31;;;;;;;8.63;6.05;;;21.30;99.90;;;;;;4131675;28;20460;-74
2021/07/19 09:56:31;;;;;;;11.63;6.55;;;21.30;99.90;;;;;;4131010;28;20060;-74
2021/07/19 09:58:32;;;;;;;12.95;6.63;;;21.30;99.90;;;;;;4130876;28;20133;-74
2021/07/19 10:00:34;;;;;;;10.90;6.35;;;21.30;99.90;;;;;;4099805;28;20043;-74
2021/07/19 10:02:37;;;;;;;10.70;6.75;;;21.30;99.90;;;;;;4133203;28;20335;-74
2021/07/19 10:04:42;;;;;;;10.85;6.85;;;21.30;99.90;;;;;;4132224;28;20050;-74
2021/07/19 10:06:45;;;;;;;10.02;6.68;;;21.30;99.90;;;;;;4113874;28;20121;-74
2021/07/19 10:08:55;;;;;;;13.35;7.65;;;21.40;99.90;;;;;;4134120;28;20042;-75
2021/07/19 10:10:56;;;;;;;12.98;7.20;;;21.30;99.90;;;;;;4103625;28;20070;-74
2021/07/19 10:12:58;;;;;;;9.70;7.05;;;21.40;99.90;;;;;;4114839;28;20041;-74
2021/07/19 10:15:02;;;;;;;15.48;6.32;;;21.40;99.90;;;;;;4130722;28;20039;-74
2021/07/19 10:17:06;;;;;;;11.98;8.07;;;21.40;99.90;;;;;;4137034;28;20048;-74
2021/07/19 10:19:07;;;;;;;11.45;7.00;;;21.50;99.90;;;;;;4132905;28;20053;-75
2021/07/19 10:21:08;;;;;;;11.52;7.40;;;21.50;99.90;;;;;;4132625;28;20034;-75
2021/07/19 10:23:11;;;;;;;11.68;7.80;;;21.50;99.90;;;;;;4130922;28;20059;-75
2021/07/19 10:25:12;;;;;;;12.90;7.88;;;21.60;99.90;;;;;;4096278;28;20443;-74
2021/07/19 10:27:21;;;;;;;10.77;7.43;;;21.50;99.90;;;;;;4132567;28;20050;-75
2021/07/19 10:29:22;;;;;;;10.38;7.07;;;21.60;99.90;;;;;;4113897;28;20675;-75
2021/07/19 10:31:23;;;;;;;10.93;7.30;;;21.70;99.90;;;;;;4115708;28;20085;-75
2021/07/19 10:33:24;;;;;;;12.10;7.17;;;21.70;99.90;;;;;;4113177;28;20043;-74